To NAV CANADA Home Page Login to a new session Search on AWWS site Feedback and Comments Disclaimer Vers la page française équivalente Tips FAQ What's new on the site To the Forecasts and Observations / NOTAM section To "File a Flight Plan" website Publications and other links Update of the User's profile FIC Telephone Numbers My Weather Data Folder Route Weather Data Regional Weather Data Local Weather Data To the Forecasts and Observations / NOTAM section
Request Generated 05/03/2016 at 14:26:41 UTC . Weather information available at that time is displayed.

METAR/TAF

ST. JOHN'S/ST. JOHN'S INTL/NL    

METAR CYYT 031400Z 17013G25KT 15SM BKN200 12/M01 A3021 RMK CS7
SLP238=
METAR CYYT 031300Z 16010G16KT 130V190 15SM BKN200 10/M02 A3022 RMK
CS7 SLP240=
METAR CYYT 031200Z 17008KT 15SM FEW040 BKN200 09/M02 A3024 RMK SC1CI6
SLP246=

TAF CYYT 031138Z 0312/0412 16006KT P6SM FEW040 BKN200
BECMG 0313/0315 15012G22KT
FM031500 15012G22KT P6SM BKN060 TEMPO 0315/0317 P6SM -RA BKN020
OVC060
FM031700 16015G25KT P6SM -RA BKN008 OVC030 TEMPO 0317/0319 BKN015
OVC030
FM031900 14020G30KT 2SM -RA BR BKN003 OVC006
BECMG 0320/0322 13025G35KT
FM040200 14020KT 1/2SM -DZ FG VV002
BECMG 0404/0406 20006KT
FM041000 22012KT 5SM BR BKN004
RMK NXT FCST BY 031800Z=
Your time UTC time
Weather data provided by Environment Canada and NAV CANADA